Camilla, Georgia
Current Conditions -  °F | °C
As of 2:53 PM on Wednesday 26 Nov 2014 (Local Time) from KABY Reporting Station
Clear Clear  
Wind Chill: 61°   Ceiling: Unl
Heat Index: 61°   Visibility: 10mi
Dew Point: 26°   Wind: 10mph
Humidity: 26%   Direction: 310°NW
Pressure: 30.15"   Gusts: NA
Location:  31.23°N, 84.2°W
Report Text: KABY 261953Z 31009KT 10SM CLR 16/M03 A3015 RMK AO2 SLP210 T01611033 $
Loading
Personal Weather Stations






























Interactive Weather Map New forecast layout! Learn more

10-Day Weather Forecast

Advertisements
Track Severe Weather on mobile